Terminal Aerodrome Forecast
Issued by NWS Charleston, WV

Current Version | Previous Version | Graphics & Text | Print | Product List | Glossary On
Versions: 1 2 3 4 5 6 7 8 9 10 11 12 13 14 15 16 17 18 19 20
000
FTUS41 KRLX 291137
TAFPKB
TAF
KPKB 291137Z 2912/3012 00000KT P6SM BKN150
     FM291600 19006KT P6SM BKN080
     FM300200 21006KT P6SM VCTS BKN040CB
     FM300300 21006KT 4SM SHRA BR VCTS OVC035CB
     FM300600 21006KT P6SM VCTS BKN040CB
     FM300800 22004KT P6SM BKN015=

USA.gov is the U.S. government's official web portal to all federal, state and local government web resources and services.